Time;durP1;ratioP1;P1;durP2;ratioP2;P2;SDS_P1;SDS_P2;PMS_P1;PMS_P2;Temp;Humidity;BMP_temperature;BMP_pressure;BME280_temperature;BME280_humidity;BME280_pressure;Samples;Min_cycle;Max_cycle;Signal;HPM_P1;HPM_P2
2022/01/18 00:03:21;;;;;;;11.00;5.83;;;7.50;90.80;;;7.96;61.50;100498.22;4973638;28;118152;-89
2022/01/18 00:05:50;;;;;;;7.17;5.70;;;7.50;90.80;;;7.93;61.91;100503.41;4984357;28;124834;-89
2022/01/18 00:20:32;;;;;;;8.50;6.37;;;7.50;91.00;;;8.03;62.30;100516.47;4978868;28;124713;-90
2022/01/18 00:22:59;;;;;;;9.00;5.73;;;7.50;91.00;;;8.05;62.08;100522.56;4957307;28;117098;-89
2022/01/18 00:25:51;;;;;;;8.87;5.90;;;7.50;91.10;;;8.10;62.09;100525.41;4965219;28;119928;-89
2022/01/18 00:28:37;;;;;;;7.90;5.80;;;7.40;91.10;;;8.12;62.07;100535.06;4949795;28;121965;-90
2022/01/18 00:34:50;;;;;;;9.87;6.10;;;7.50;91.20;;;8.13;62.31;100535.91;4974889;28;120685;-87
2022/01/18 00:37:58;;;;;;;9.67;6.17;;;7.60;91.20;;;8.18;62.43;100538.72;4958026;28;119881;-89
2022/01/18 00:40:26;;;;;;;6.90;5.57;;;7.60;91.30;;;8.17;62.05;100537.91;4985880;28;124858;-90
2022/01/18 00:47:31;;;;;;;9.00;6.33;;;7.60;91.30;;;8.21;62.36;100524.44;4983752;28;119718;-89
2022/01/18 00:53:43;;;;;;;9.37;5.90;;;7.60;91.30;;;8.21;62.37;100540.97;4983821;28;124409;-88
2022/01/18 01:03:36;;;;;;;8.73;6.80;;;7.70;91.30;;;8.18;62.58;100536.81;4986018;28;119633;-90
2022/01/18 01:13:29;;;;;;;11.23;6.73;;;7.70;91.20;;;8.16;62.22;100549.97;4975227;28;120484;-89
2022/01/18 01:42:29;;;;;;;10.87;5.90;;;7.60;91.20;;;8.13;62.47;100578.03;4958585;28;120909;-89
2022/01/18 01:52:21;;;;;;;9.60;6.80;;;7.60;91.30;;;8.12;62.64;100576.38;5719576;23;120194;-89
2022/01/18 01:58:37;;;;;;;10.77;6.80;;;7.60;91.40;;;8.18;62.16;100585.53;4966813;28;124730;-87
2022/01/18 02:04:46;;;;;;;10.53;6.37;;;7.60;91.40;;;8.20;62.46;100586.13;4975344;28;120248;-88
2022/01/18 02:07:31;;;;;;;10.80;7.10;;;7.80;91.50;;;8.23;62.66;100585.63;4971256;28;118787;-89
2022/01/18 02:13:42;;;;;;;9.40;7.10;;;7.70;91.40;;;8.24;62.65;100587.25;4975755;28;124199;-89
2022/01/18 02:23:33;;;;;;;10.03;6.90;;;7.70;91.40;;;8.17;62.45;100573.69;4957875;28;124939;-89
2022/01/18 02:29:43;;;;;;;13.83;7.13;;;7.70;91.40;;;8.16;62.78;100563.75;4962240;28;120437;-90
2022/01/18 02:32:10;;;;;;;9.60;7.57;;;7.70;91.40;;;8.16;62.46;100571.19;4967711;28;118540;-89
2022/01/18 02:34:37;;;;;;;13.60;8.30;;;7.70;91.40;;;8.17;62.34;100584.72;4960636;28;123683;-89
2022/01/18 02:37:24;;;;;;;11.53;8.57;;;7.60;91.40;;;8.20;62.86;100594.38;4972813;28;123471;-90
2022/01/18 02:40:10;;;;;;;11.10;7.37;;;7.60;91.40;;;8.19;62.37;100585.28;4975385;28;120900;-89
2022/01/18 02:46:19;;;;;;;12.93;8.10;;;7.60;91.40;;;8.13;62.80;100582.69;4973474;28;125075;-89
2022/01/18 02:49:06;;;;;;;10.40;7.30;;;7.60;91.40;;;8.18;62.41;100580.03;4962624;28;123584;-89
2022/01/18 02:51:34;;;;;;;14.33;7.93;;;7.60;91.40;;;8.19;62.43;100578.94;4951322;28;119858;-90
2022/01/18 02:58:07;;;;;;;10.10;7.23;;;7.60;91.40;;;8.18;62.62;100574.53;4932241;28;125160;-89
2022/01/18 03:07:58;;;;;;;11.57;7.20;;;7.60;91.50;;;8.14;62.82;100570.59;4955132;28;119956;-89
2022/01/18 03:14:45;;;;;;;11.30;7.00;;;7.60;91.50;;;8.16;62.74;100565.66;4951398;28;124013;-89
2022/01/18 03:17:51;;;;;;;12.90;7.50;;;7.60;91.50;;;8.15;62.67;100564.84;4939342;28;118003;-90
2022/01/18 03:20:20;;;;;;;11.80;8.57;;;7.60;91.50;;;8.13;62.79;100571.69;4936955;28;117538;-90
2022/01/18 03:23:50;;;;;;;12.03;8.73;;;7.60;91.50;;;8.15;62.66;100564.00;4961702;28;123947;-89
2022/01/18 03:26:18;;;;;;;13.23;8.33;;;7.60;91.50;;;8.13;62.52;100569.75;4936526;28;123868;-89
2022/01/18 03:32:27;;;;;;;11.40;8.10;;;7.60;91.50;;;8.12;62.46;100570.03;4956710;28;119987;-87
2022/01/18 03:34:55;;;;;;;15.03;8.77;;;7.60;91.40;;;8.12;62.83;100570.03;4956409;28;121864;-89
2022/01/18 03:37:22;;;;;;;14.83;8.07;;;7.60;91.40;;;8.14;62.66;100570.59;4953231;28;124612;-89
2022/01/18 03:43:32;;;;;;;12.67;8.30;;;7.60;91.40;;;8.13;62.40;100561.50;4956677;28;120893;-89
2022/01/18 03:54:01;;;;;;;12.90;8.43;;;7.60;91.40;;;8.08;62.35;100574.38;4966340;28;120333;-88
2022/01/18 03:56:28;;;;;;;12.93;8.70;;;7.60;91.40;;;8.06;62.48;100576.53;4973668;28;119797;-88
2022/01/18 03:58:56;;;;;;;14.00;8.80;;;7.60;91.40;;;8.08;62.49;100572.44;4963031;28;124745;-89
2022/01/18 04:02:02;;;;;;;13.50;8.47;;;7.70;91.50;;;8.12;62.37;100575.53;4940100;28;122957;-89
2022/01/18 04:09:08;;;;;;;10.00;7.70;;;7.60;91.40;;;8.09;62.49;100587.06;4955715;28;119491;-89
2022/01/18 04:15:17;;;;;;;14.00;8.03;;;7.60;91.40;;;8.06;62.59;100587.53;4955533;28;124684;-89
2022/01/18 04:28:03;;;;;;;13.70;11.00;;;7.60;91.40;;;8.08;62.50;100591.72;4937181;28;124427;-90
2022/01/18 04:42:31;;;;;;;14.63;8.87;;;7.50;91.40;;;8.04;62.50;100596.06;4953320;28;124694;-89
2022/01/18 04:52:06;;;;;;;18.03;9.87;;;7.50;91.40;;;8.05;62.57;100618.91;4853212;29;123664;-89
2022/01/18 04:54:32;;;;;;;13.47;8.87;;;7.60;91.50;;;8.03;62.82;100610.06;4864353;29;124450;-89
2022/01/18 04:59:29;;;;;;;16.30;10.77;;;7.50;91.40;;;8.02;62.56;100613.91;4862971;29;121140;-89
2022/01/18 05:02:14;;;;;;;19.40;11.00;;;7.50;91.40;;;8.01;62.66;100613.09;4855726;29;123105;-90
2022/01/18 05:09:10;;;;;;;16.97;9.97;;;7.50;91.40;;;7.93;62.60;100616.25;4854266;29;119341;-89
2022/01/18 05:12:45;;;;;;;19.70;10.67;;;7.50;91.30;;;7.92;62.63;100614.56;4839211;29;117725;-89
2022/01/18 05:23:55;;;;;;;17.07;11.20;;;7.40;91.40;;;7.84;62.75;100613.06;4949188;28;119541;-89
2022/01/18 05:27:19;;;;;;;19.80;11.20;;;7.50;91.50;;;7.86;62.76;100613.66;4932924;28;123380;-89
2022/01/18 05:30:09;;;;;;;19.40;10.77;;;7.30;91.40;;;7.88;62.49;100621.69;4955156;28;123421;-89
2022/01/18 05:32:37;;;;;;;16.23;11.10;;;7.30;91.50;;;7.87;62.92;100617.25;4949155;28;118775;-87
2022/01/18 05:38:46;;;;;;;20.10;11.43;;;7.30;91.50;;;7.82;62.82;100620.75;4957245;28;124179;-90
2022/01/18 05:41:31;;;;;;;17.43;10.53;;;7.30;91.50;;;7.83;62.91;100616.91;4955491;28;124512;-90
2022/01/18 05:43:58;;;;;;;21.10;12.00;;;7.30;91.50;;;7.81;62.91;100621.81;4949445;28;119891;-89
2022/01/18 05:46:27;;;;;;;20.80;10.93;;;7.40;91.60;;;7.83;63.24;100627.91;4953065;28;119631;-90
2022/01/18 05:49:12;;;;;;;15.90;9.87;;;7.90;91.80;;;7.86;62.97;100624.66;4951914;28;123823;-90
2022/01/18 05:51:41;;;;;;;24.67;13.57;;;7.30;91.60;;;7.86;63.05;100623.84;4945633;28;124356;-90
2022/01/18 05:54:09;;;;;;;17.90;11.30;;;7.30;91.50;;;7.85;62.67;100624.94;4957286;28;118014;-89
2022/01/18 05:56:36;;;;;;;16.83;10.83;;;7.30;91.50;;;7.87;62.93;100623.59;4968128;28;119701;-89
2022/01/18 05:59:05;;;;;;;17.50;10.87;;;7.30;91.60;;;7.91;63.02;100633.00;4951037;28;123701;-89
2022/01/18 06:01:35;;;;;;;15.33;9.80;;;7.40;91.60;;;7.92;62.77;100626.41;4930806;28;123060;-89
2022/01/18 06:04:19;;;;;;;19.13;10.97;;;7.30;91.60;;;7.94;62.49;100629.75;4950370;28;122579;-89
2022/01/18 06:06:53;;;;;;;18.10;10.63;;;7.40;91.60;;;7.93;62.61;100627.25;4951223;28;119771;-90
2022/01/18 06:09:23;;;;;;;18.17;10.40;;;7.40;91.60;;;7.93;62.60;100627.25;4945128;28;124796;-89
2022/01/18 06:11:51;;;;;;;16.53;11.27;;;7.40;91.60;;;7.91;63.03;100633.00;4932110;28;121961;-90
2022/01/18 06:14:19;;;;;;;20.50;11.27;;;7.40;91.60;;;7.91;62.61;100630.25;4944101;28;118632;-89
2022/01/18 06:16:46;;;;;;;18.27;11.67;;;7.40;91.60;;;7.88;62.61;100630.75;4960196;28;118667;-88
2022/01/18 06:19:12;;;;;;;21.30;13.23;;;7.40;91.50;;;7.85;62.94;100636.75;4951236;28;123828;-90
2022/01/18 06:21:39;;;;;;;22.70;11.73;;;7.30;91.50;;;7.80;62.58;100633.09;4949772;28;124669;-90
2022/01/18 06:24:08;;;;;;;24.57;11.77;;;7.30;91.50;;;7.78;62.91;100630.59;4949183;28;119751;-87
2022/01/18 06:26:35;;;;;;;15.43;9.77;;;7.00;91.40;;;7.78;62.76;100633.34;4932143;28;117655;-90
2022/01/18 06:29:02;;;;;;;18.40;10.57;;;7.20;91.50;;;7.78;62.46;100640.75;4963794;28;124942;-90
2022/01/18 06:31:30;;;;;;;20.40;11.57;;;7.30;91.60;;;7.80;62.51;100633.09;4953909;28;124172;-88
2022/01/18 06:34:18;;;;;;;19.03;10.57;;;7.20;91.60;;;7.80;62.71;100633.94;4964463;28;120837;-89
2022/01/18 06:36:44;;;;;;;24.10;13.77;;;7.30;91.70;;;7.85;62.93;100641.44;4926402;28;119056;-88
2022/01/18 06:39:30;;;;;;;20.20;12.70;;;7.20;91.80;;;7.86;63.32;100649.44;4925322;28;122542;-88
2022/01/18 06:42:35;;;;;;;22.00;11.90;;;7.30;91.90;;;7.87;63.39;100651.13;4946826;28;123284;-90
2022/01/18 06:45:03;;;;;;;18.60;11.07;;;7.30;92.00;;;7.88;63.50;100657.44;4948773;28;118941;-90
2022/01/18 06:47:31;;;;;;;17.70;11.40;;;7.30;92.00;;;7.93;63.38;100663.03;4925151;28;118777;-89
2022/01/18 06:49:57;;;;;;;18.80;12.00;;;7.40;92.10;;;7.99;63.60;100664.78;4952995;28;121870;-88
2022/01/18 06:52:25;;;;;;;21.77;12.50;;;7.80;92.40;;;8.04;63.11;100666.81;4954540;28;123108;-90
2022/01/18 06:54:54;;;;;;;20.60;12.70;;;7.60;92.30;;;8.04;63.15;100666.81;4927925;28;119094;-90
2022/01/18 06:57:20;;;;;;;21.47;14.13;;;7.40;92.10;;;8.04;63.42;100664.88;4945531;28;119058;-89
2022/01/18 06:59:49;;;;;;;23.53;13.07;;;7.40;92.10;;;8.00;63.29;100671.13;4929046;28;122635;-90
2022/01/18 07:02:16;;;;;;;24.20;14.80;;;7.70;92.10;;;7.98;62.81;100671.41;4948602;28;123853;-90
2022/01/18 07:04:45;;;;;;;24.30;13.93;;;7.80;92.10;;;7.95;62.94;100680.97;4933260;28;118986;-90
2022/01/18 07:07:12;;;;;;;22.80;13.03;;;7.40;91.90;;;7.91;63.07;100678.97;4949025;28;118614;-88
2022/01/18 07:09:39;;;;;;;19.00;12.97;;;7.30;91.80;;;7.90;62.99;100680.88;4918825;28;123428;-89
2022/01/18 07:12:10;;;;;;;23.73;12.40;;;7.30;91.90;;;7.91;63.16;100677.03;4946555;28;122776;-89
2022/01/18 07:14:39;;;;;;;22.37;13.10;;;7.30;91.80;;;7.93;63.20;100683.13;4959909;28;119310;-89
2022/01/18 07:17:06;;;;;;;19.90;10.73;;;7.40;91.90;;;7.93;62.99;100679.56;4950808;28;119712;-86
2022/01/18 07:19:33;;;;;;;20.10;11.83;;;7.30;91.80;;;7.95;62.90;100672.72;4928168;28;123457;-88
2022/01/18 07:22:01;;;;;;;24.20;13.57;;;7.80;92.00;;;7.97;63.00;100681.53;4930486;28;122395;-89
2022/01/18 07:24:39;;;;;;;18.70;11.60;;;7.40;91.80;;;7.95;62.88;100669.97;4919669;28;118213;-88
2022/01/18 07:31:45;;;;;;;23.63;11.27;;;7.40;91.80;;;7.95;62.67;100691.13;4963810;28;124684;-89
2022/01/18 07:34:33;;;;;;;21.60;11.20;;;7.40;91.70;;;7.92;62.60;100686.97;4928541;28;122116;-83
2022/01/18 07:37:22;;;;;;;18.30;10.93;;;7.40;91.70;;;7.94;62.84;100690.31;4920148;28;118600;-86
2022/01/18 07:39:52;;;;;;;17.60;11.60;;;7.40;91.70;;;7.96;62.47;100698.31;4936026;28;119494;-82
2022/01/18 07:42:21;;;;;;;22.13;11.70;;;7.40;91.70;;;7.99;62.66;100697.81;4925049;28;123463;-82
2022/01/18 07:44:49;;;;;;;21.50;11.80;;;7.40;91.70;;;8.00;62.49;100693.97;4939619;28;123005;-85
2022/01/18 07:47:16;;;;;;;18.33;10.93;;;7.40;91.70;;;8.03;62.58;100700.91;4936245;28;118585;-87
2022/01/18 07:49:43;;;;;;;20.87;12.40;;;7.40;91.70;;;8.06;62.47;100698.50;4932780;28;118767;-88
2022/01/18 07:52:10;;;;;;;17.37;11.83;;;7.40;91.70;;;8.07;62.72;100700.16;4932583;28;124506;-88
2022/01/18 07:54:59;;;;;;;17.57;11.93;;;7.50;91.70;;;8.14;62.75;100713.75;4914125;28;122795;-88
2022/01/18 07:58:05;;;;;;;20.13;11.27;;;7.50;91.70;;;8.14;62.56;100706.34;4915135;28;118918;-88
2022/01/18 08:00:32;;;;;;;20.20;11.93;;;7.50;91.60;;;8.13;62.41;100709.34;4942418;28;118366;-90
2022/01/18 08:03:18;;;;;;;17.47;11.30;;;7.50;91.60;;;8.14;62.17;100713.75;4933816;28;123794;-91
2022/01/18 08:06:05;;;;;;;19.53;11.03;;;7.50;91.60;;;8.13;62.27;100715.69;4930358;28;123104;-90
2022/01/18 08:08:35;;;;;;;17.50;11.20;;;7.50;91.50;;;8.12;62.42;100713.19;4938404;28;118278;-87
2022/01/18 08:11:03;;;;;;;19.20;12.60;;;7.50;91.50;;;8.13;62.31;100721.19;4935278;28;120151;-90
2022/01/18 08:13:37;;;;;;;19.43;11.57;;;7.50;91.50;;;8.18;62.29;100712.19;4933304;28;123060;-90
2022/01/18 08:19:55;;;;;;;20.40;11.13;;;7.60;91.60;;;8.24;62.25;100719.44;4920172;28;120464;-89
2022/01/18 08:22:24;;;;;;;19.40;12.33;;;7.60;91.50;;;8.23;62.24;100715.03;4933573;28;119336;-90
2022/01/18 08:24:52;;;;;;;15.93;10.33;;;7.60;91.50;;;8.26;62.22;100719.19;4932776;28;123656;-91
2022/01/18 08:27:57;;;;;;;22.20;12.23;;;7.60;91.50;;;8.28;61.81;100719.78;4934535;28;123087;-91
2022/01/18 08:30:43;;;;;;;14.37;10.17;;;7.70;91.50;;;8.30;61.80;100731.38;4937454;28;118958;-91
2022/01/18 08:33:10;;;;;;;21.57;11.13;;;7.70;91.40;;;8.29;62.16;100725.03;4941972;28;118897;-92
2022/01/18 08:35:39;;;;;;;17.93;10.93;;;7.70;91.40;;;8.29;61.70;100727.78;4917049;28;124103;-90
2022/01/18 08:38:07;;;;;;;25.83;12.90;;;7.90;91.50;;;8.33;62.20;100731.72;4916905;28;124788;-90
2022/01/18 08:40:52;;;;;;;18.57;11.50;;;7.70;91.50;;;8.36;62.36;100719.38;4933748;28;119206;-90
2022/01/18 08:43:18;;;;;;;22.23;12.40;;;7.70;91.60;;;8.33;61.79;100720.72;4920538;28;118869;-91
2022/01/18 08:49:26;;;;;;;17.37;10.80;;;7.70;91.60;;;8.37;62.09;100732.88;4935860;28;124037;-92
2022/01/18 08:52:12;;;;;;;20.03;12.50;;;7.70;91.60;;;8.43;62.01;100730.25;4937503;28;118836;-89
2022/01/18 08:54:40;;;;;;;22.70;13.87;;;7.80;91.50;;;8.42;61.69;100725.84;4921377;28;119572;-90
2022/01/18 08:57:10;;;;;;;20.00;12.27;;;7.90;91.40;;;8.41;61.47;100730.50;4896947;28;123530;-89
2022/01/18 08:59:56;;;;;;;19.07;11.23;;;7.80;91.30;;;8.43;61.78;100733.81;4903561;28;121559;-91
2022/01/18 09:02:24;;;;;;;17.50;10.63;;;7.80;91.20;;;8.37;61.74;100730.13;4904476;28;118331;-91
2022/01/18 09:04:53;;;;;;;19.87;11.40;;;7.80;91.20;;;8.39;61.38;100732.69;4904145;28;119347;-90
2022/01/18 09:07:20;;;;;;;23.83;11.10;;;7.90;91.20;;;8.40;61.24;100732.41;4916221;28;123266;-91
2022/01/18 09:09:51;;;;;;;15.40;9.37;;;8.70;91.50;;;8.43;61.31;100725.56;4910936;28;124451;-88
2022/01/18 09:12:37;;;;;;;15.00;10.07;;;8.10;91.20;;;8.46;61.34;100738.00;4881626;28;119353;-87
2022/01/18 09:15:08;;;;;;;16.93;9.90;;;7.80;91.00;;;8.46;61.33;100736.06;4891823;28;118928;-87
2022/01/18 09:17:38;;;;;;;18.27;10.33;;;7.90;91.00;;;8.50;61.25;100741.94;4902477;28;123562;-88
2022/01/18 09:20:08;;;;;;;16.00;9.67;;;8.00;91.10;;;8.54;60.98;100738.44;4905618;28;123711;-89
2022/01/18 09:22:40;;;;;;;24.93;12.40;;;7.90;91.00;;;8.57;60.93;100728.81;4887831;28;119612;-87
2022/01/18 09:25:12;;;;;;;22.97;13.10;;;7.90;90.90;;;8.52;60.70;100734.25;4882247;28;117303;-88
2022/01/18 09:27:39;;;;;;;17.97;11.10;;;6.70;90.30;;;8.49;60.85;100738.34;4919158;28;123379;-89
2022/01/18 09:30:07;;;;;;;18.23;11.27;;;7.90;90.90;;;8.52;61.14;100739.78;4934697;28;123469;-87
2022/01/18 09:32:35;;;;;;;16.07;10.37;;;7.90;90.90;;;8.56;60.93;100743.69;4922803;28;118142;-86
2022/01/18 09:35:01;;;;;;;18.03;10.53;;;8.00;90.90;;;8.62;60.84;100739.91;4916017;28;119802;-87
2022/01/18 09:37:47;;;;;;;16.80;10.77;;;8.00;90.90;;;8.70;60.85;100733.16;4895377;28;121977;-88
2022/01/18 09:40:19;;;;;;;18.20;10.93;;;8.10;91.00;;;8.72;60.94;100729.06;4913155;28;123055;-90
2022/01/18 09:42:48;;;;;;;19.80;10.90;;;8.10;90.90;;;8.75;60.64;100736.81;4918727;28;118677;-87
2022/01/18 09:45:16;;;;;;;20.97;13.00;;;8.30;91.00;;;8.79;60.89;100735.22;4913172;28;118865;-88
2022/01/18 09:48:03;;;;;;;20.17;12.00;;;8.20;90.90;;;8.82;60.60;100744.91;4912929;28;122474;-87
2022/01/18 09:50:34;;;;;;;16.53;10.10;;;8.20;90.80;;;8.81;60.64;100746.84;4928069;28;125524;-89
2022/01/18 09:53:03;;;;;;;24.80;13.63;;;8.20;90.80;;;8.79;60.55;100742.66;4924030;28;118430;-89
2022/01/18 09:55:34;;;;;;;19.47;11.33;;;8.20;91.00;;;8.78;60.62;100744.56;4939603;28;119492;-88
2022/01/18 09:58:06;;;;;;;22.40;13.20;;;8.20;90.70;;;8.80;60.48;100742.41;4933997;28;124276;-87
2022/01/18 10:00:39;;;;;;;18.40;10.70;;;8.20;90.70;;;8.85;60.67;100736.97;4918384;28;123483;-89
2022/01/18 10:03:11;;;;;;;21.80;11.57;;;8.40;90.80;;;8.89;60.48;100747.47;4930243;28;120372;-89
2022/01/18 10:05:38;;;;;;;20.20;11.47;;;8.60;91.20;;;8.95;60.50;100738.22;4914813;28;120325;-87
2022/01/18 10:08:15;;;;;;;16.20;11.40;;;8.70;90.90;;;9.01;60.43;100731.69;4929797;28;124125;-89
2022/01/18 10:10:51;;;;;;;20.03;11.57;;;8.40;90.80;;;9.06;60.02;100724.31;4911944;28;124160;-88
2022/01/18 10:13:32;;;;;;;18.60;11.80;;;8.40;90.70;;;9.07;59.83;100722.38;4910347;28;118514;-87
2022/01/18 10:16:16;;;;;;;16.37;9.93;;;8.40;90.50;;;9.10;59.84;100724.63;4927260;28;118045;-89
2022/01/18 10:18:49;;;;;;;16.23;9.97;;;8.50;90.50;;;9.15;59.83;100726.63;4919384;28;123764;-88
2022/01/18 10:21:31;;;;;;;19.10;10.60;;;8.50;90.50;;;9.22;59.39;100721.75;4940137;28;123088;-89
2022/01/18 10:24:25;;;;;;;16.10;9.30;;;8.50;90.50;;;9.29;59.33;100717.72;4915749;28;118503;-89
2022/01/18 10:26:54;;;;;;;14.93;9.03;;;8.60;90.40;;;9.35;59.34;100726.03;4918148;28;118192;-89
2022/01/18 10:29:30;;;;;;;13.30;8.90;;;8.60;90.30;;;9.42;59.59;100716.47;4930976;28;123266;-90
2022/01/18 10:32:10;;;;;;;12.07;7.93;;;8.80;90.40;;;9.49;58.92;100705.25;4932179;28;123787;-89
2022/01/18 10:37:33;;;;;;;12.20;8.00;;;8.90;90.20;;;9.64;58.67;100708.16;4916349;28;118932;-88
2022/01/18 10:40:15;;;;;;;17.53;9.77;;;8.90;90.10;;;9.67;57.94;100707.69;4911546;28;123319;-86
2022/01/18 10:42:48;;;;;;;14.07;8.80;;;9.00;89.50;;;9.67;57.74;100713.19;4901977;28;122147;-87
2022/01/18 10:46:14;;;;;;;18.00;10.37;;;9.00;89.20;;;9.68;57.35;100703.81;4929615;28;117538;-89
2022/01/18 10:49:02;;;;;;;19.27;10.20;;;9.00;88.70;;;9.67;57.46;100701.28;4932188;28;119587;-88
2022/01/18 10:51:31;;;;;;;13.67;8.63;;;9.00;88.50;;;9.68;57.48;100698.28;4912301;28;123878;-88
2022/01/18 10:54:08;;;;;;;13.33;7.43;;;9.10;88.70;;;9.72;57.42;100693.94;4917863;28;123686;-89
2022/01/18 10:56:44;;;;;;;18.67;8.77;;;9.10;88.50;;;9.76;57.52;100690.66;4928269;28;120718;-90
2022/01/18 10:59:25;;;;;;;14.33;8.83;;;9.30;88.50;;;9.81;57.21;100691.53;4928211;28;119451;-87
2022/01/18 11:02:18;;;;;;;17.13;9.10;;;9.20;88.10;;;9.81;56.91;100691.53;4943113;28;124152;-87
2022/01/18 11:04:54;;;;;;;14.03;8.70;;;9.20;87.90;;;9.84;57.10;100690.19;4923276;28;123922;-87
2022/01/18 11:07:28;;;;;;;16.63;8.93;;;10.60;88.10;;;9.86;56.66;100677.78;4923842;28;119062;-88
2022/01/18 11:10:05;;;;;;;15.03;9.27;;;9.20;87.70;;;9.90;56.64;100672.56;4930225;28;119615;-87
2022/01/18 11:13:03;;;;;;;17.10;10.43;;;9.30;87.80;;;9.92;56.58;100675.91;4927580;28;124132;-87
2022/01/18 11:15:37;;;;;;;12.83;7.90;;;9.30;87.10;;;9.88;56.57;100674.75;4943476;28;123188;-88
2022/01/18 11:18:45;;;;;;;17.17;9.27;;;9.30;87.20;;;9.89;56.31;100665.38;4929125;28;119419;-86
2022/01/18 11:21:31;;;;;;;17.27;9.50;;;9.30;87.00;;;9.95;55.86;100658.81;4924916;28;119201;-87
2022/01/18 11:23:59;;;;;;;15.67;7.80;;;9.30;86.50;;;10.03;56.16;100661.06;4925258;28;123364;-89
2022/01/18 11:26:28;;;;;;;13.07;8.37;;;9.40;87.00;;;10.16;55.89;100663.41;4927814;28;124321;-87
2022/01/18 11:29:16;;;;;;;11.60;7.57;;;9.50;87.00;;;10.26;55.79;100664.56;4928480;28;119080;-88
2022/01/18 11:31:52;;;;;;;12.90;6.67;;;9.50;86.80;;;10.28;55.20;100656.88;4928618;28;118490;-89
2022/01/18 11:34:55;;;;;;;12.73;7.00;;;9.60;86.20;;;10.25;54.95;100662.91;4925509;28;124767;-87
2022/01/18 11:38:10;;;;;;;11.30;6.70;;;9.60;85.50;;;10.21;54.69;100657.09;4930664;28;125253;-87
2022/01/18 11:40:49;;;;;;;9.20;6.00;;;9.60;85.40;;;10.18;54.85;100658.44;4866941;28;119455;-87
2022/01/18 11:43:37;;;;;;;13.27;6.80;;;9.60;85.20;;;10.20;54.49;100662.88;4927232;28;118530;-88
2022/01/18 11:46:34;;;;;;;10.13;6.30;;;9.60;84.90;;;10.17;54.63;100655.94;4926712;28;122429;-89
2022/01/18 11:49:21;;;;;;;9.90;6.40;;;9.60;84.70;;;10.24;54.58;100658.50;4927543;28;123651;-89
2022/01/18 11:52:09;;;;;;;7.93;5.13;;;9.70;85.00;;;10.43;54.47;100654.25;4927259;28;120014;-89
2022/01/18 11:54:58;;;;;;;10.77;6.90;;;9.70;85.10;;;10.70;54.02;100633.97;4943174;28;119099;-89
2022/01/18 11:57:27;;;;;;;12.70;6.93;;;9.90;85.10;;;10.94;53.75;100648.19;4926881;28;124114;-91
2022/01/18 12:00:18;;;;;;;17.90;8.50;;;10.10;84.00;;;11.03;53.20;100641.00;4927943;28;123146;-89
2022/01/18 12:02:48;;;;;;;15.17;6.80;;;10.50;83.40;;;10.99;53.28;100632.44;4925186;28;119390;-90
2022/01/18 12:05:22;;;;;;;13.30;7.20;;;10.30;83.20;;;10.97;53.34;100640.16;4925992;28;119041;-88
2022/01/18 12:08:00;;;;;;;12.67;6.77;;;10.30;83.10;;;10.95;53.47;100642.34;4929413;28;124593;-88
2022/01/18 12:10:33;;;;;;;13.57;7.50;;;10.40;83.10;;;10.92;53.95;100633.78;4929343;28;123022;-89
2022/01/18 12:13:14;;;;;;;15.57;7.77;;;10.40;83.10;;;10.89;53.79;100629.63;4929880;28;118626;-89
2022/01/18 12:15:45;;;;;;;11.93;7.43;;;10.40;82.80;;;10.84;53.64;100637.88;4927875;28;118314;-88
2022/01/18 12:18:18;;;;;;;12.10;6.80;;;10.30;82.70;;;10.82;53.79;100631.78;4929021;28;123212;-88
2022/01/18 12:20:50;;;;;;;9.43;6.53;;;10.40;82.90;;;10.80;53.65;100631.22;4924413;28;123378;-86
2022/01/18 12:23:39;;;;;;;14.83;7.23;;;10.30;82.90;;;10.80;53.67;100636.75;4927892;28;119827;-88
2022/01/18 12:26:48;;;;;;;12.23;7.53;;;10.30;82.50;;;10.68;53.40;100625.91;4927694;28;118968;-88
2022/01/18 12:34:31;;;;;;;6.83;5.03;;;10.20;83.10;;;10.56;53.74;100617.84;4930541;28;119449;-89
2022/01/18 12:37:07;;;;;;;9.30;5.30;;;10.20;82.10;;;10.48;53.33;100621.13;4929946;28;119169;-88
2022/01/18 12:39:57;;;;;;;14.20;5.60;;;10.00;81.60;;;10.42;53.63;100619.41;4928937;28;124683;-88
2022/01/18 12:45:27;;;;;;;9.00;5.10;;;10.00;81.90;;;10.38;53.30;100619.09;4926976;28;120311;-88
2022/01/18 12:48:05;;;;;;;7.13;4.07;;;9.90;82.80;;;10.30;53.05;100622.38;4924168;28;119214;-89
2022/01/18 12:50:53;;;;;;;9.27;5.20;;;10.00;81.80;;;10.23;53.56;100615.38;4925303;28;124136;-86
2022/01/18 12:53:36;;;;;;;7.50;4.03;;;9.80;82.70;;;10.13;53.22;100616.97;4927690;28;124554;-88
2022/01/18 12:56:09;;;;;;;6.80;4.53;;;9.70;82.60;;;10.06;53.51;100613.59;4924992;28;119311;-88
2022/01/18 12:58:48;;;;;;;5.93;4.33;;;9.60;82.80;;;10.06;53.80;100613.59;4928135;28;119193;-88
2022/01/18 13:01:24;;;;;;;6.73;4.43;;;9.60;82.90;;;10.05;53.82;100617.47;4922287;28;124271;-89
2022/01/18 13:04:09;;;;;;;6.90;3.73;;;9.60;82.90;;;10.04;53.65;100612.19;4923163;28;121824;-88
2022/01/18 13:10:17;;;;;;;5.97;3.63;;;9.60;82.60;;;9.97;53.33;100617.97;4923129;28;119308;-89
2022/01/18 13:12:49;;;;;;;6.83;4.07;;;9.50;82.40;;;9.97;52.88;100609.69;4920108;28;123135;-90
2022/01/18 13:27:10;;;;;;;6.93;3.53;;;9.40;81.80;;;9.77;52.91;100603.97;4928717;28;124423;-89
2022/01/18 13:33:58;;;;;;;5.70;3.60;;;9.30;81.90;;;9.76;52.98;100596.78;4933203;28;119333;-88
2022/01/18 13:37:02;;;;;;;4.67;3.17;;;9.30;81.90;;;9.71;53.00;100598.41;4936007;28;123350;-89
2022/01/18 13:39:45;;;;;;;6.07;3.07;;;9.20;81.70;;;9.67;53.16;100588.13;4929650;28;123754;-89
2022/01/18 13:42:20;;;;;;;5.20;2.87;;;9.20;81.90;;;9.69;53.45;100581.25;4932913;28;119514;-90
2022/01/18 13:45:16;;;;;;;3.80;2.50;;;9.20;82.10;;;9.73;53.43;100582.41;4925948;28;119442;-89
2022/01/18 13:48:00;;;;;;;5.53;2.60;;;9.30;82.20;;;9.77;53.45;100584.66;4916236;28;122384;-89
2022/01/18 13:50:42;;;;;;;3.93;2.43;;;9.30;82.30;;;9.82;53.47;100576.41;4943485;28;123954;-89
2022/01/18 13:53:20;;;;;;;5.00;3.30;;;9.30;82.30;;;9.90;53.08;100574.00;4930485;28;118710;-89
2022/01/18 13:56:14;;;;;;;3.30;2.90;;;9.40;82.50;;;9.95;52.59;100578.72;4914471;28;118235;-89
2022/01/18 13:59:04;;;;;;;5.30;3.20;;;9.40;81.90;;;10.09;52.93;100568.06;4918106;28;123327;-89
2022/01/18 14:01:36;;;;;;;2.97;2.23;;;9.40;82.20;;;10.30;52.91;100566.28;4915583;28;123443;-90
2022/01/18 14:04:42;;;;;;;3.47;2.70;;;9.60;82.50;;;10.60;52.62;100573.91;4909158;28;117594;-89
2022/01/18 14:07:10;;;;;;;6.80;2.77;;;9.80;82.40;;;10.88;52.34;100564.38;4918420;28;119191;-88
2022/01/18 14:10:01;;;;;;;5.60;2.67;;;10.10;81.70;;;11.22;51.87;100566.66;4933860;28;124139;-90
2022/01/18 14:12:34;;;;;;;3.20;2.30;;;10.30;81.40;;;11.48;51.35;100570.31;4931113;28;122989;-89
2022/01/18 14:15:58;;;;;;;5.90;2.70;;;10.60;81.40;;;11.74;51.39;100551.78;4919092;28;119078;-91
2022/01/18 14:19:05;;;;;;;3.07;2.10;;;10.90;81.00;;;12.06;50.73;100558.97;4917713;28;118920;-89
2022/01/18 14:21:51;;;;;;;3.03;2.10;;;11.30;80.50;;;12.38;50.12;100561.41;4913652;28;122266;-91
2022/01/18 14:24:39;;;;;;;5.90;2.17;;;11.70;80.00;;;12.71;50.05;100559.94;4912821;28;123654;-91
2022/01/18 14:28:02;;;;;;;3.10;2.00;;;12.10;79.60;;;13.09;49.39;100559.47;4929101;28;119886;-90
2022/01/18 14:30:31;;;;;;;4.20;2.10;;;12.60;78.80;;;13.36;47.40;100559.06;4931892;28;118582;-89
2022/01/18 14:32:57;;;;;;;2.87;1.70;;;13.10;76.20;;;13.58;47.35;100553.91;4916770;28;122474;-91
2022/01/18 14:35:26;;;;;;;4.03;2.40;;;13.40;75.60;;;13.84;46.30;100554.53;4929392;28;123948;-89
2022/01/18 14:38:08;;;;;;;5.17;2.30;;;13.90;74.40;;;14.12;46.22;100544.53;4913482;28;119495;-90
2022/01/18 14:41:23;;;;;;;3.93;2.10;;;14.30;73.50;;;14.35;45.89;100547.66;4931788;28;118902;-89
2022/01/18 14:43:53;;;;;;;2.70;1.87;;;14.80;72.00;;;14.46;45.04;100546.41;4928218;28;124119;-89